Time;durP1;ratioP1;P1;durP2;ratioP2;P2;SDS_P1;SDS_P2;PMS_P1;PMS_P2;Temp;Humidity;BMP_temperature;BMP_pressure;BME280_temperature;BME280_humidity;BME280_pressure;Samples;Min_cycle;Max_cycle;Signal;HPM_P1;HPM_P2
2021/09/07 00:01:36;;;;;;;0.90;0.77;;;;;;;;;;5010546;28;20025;-73
2021/09/07 00:04:01;;;;;;;2.95;0.93;;;;;;;;;;5012540;28;20033;-73
2021/09/07 00:06:27;;;;;;;1.17;0.70;;;;;;;;;;5014497;28;20555;-73
2021/09/07 00:08:53;;;;;;;2.78;0.63;;;;;;;;;;5014225;28;20032;-73
2021/09/07 00:11:18;;;;;;;1.33;0.90;;;;;;;;;;5014131;28;20046;-73
2021/09/07 00:13:44;;;;;;;1.60;0.80;;;;;;;;;;5031134;28;20112;-74
2021/09/07 00:16:10;;;;;;;1.23;0.80;;;;;;;;;;5026827;28;20032;-73
2021/09/07 00:18:35;;;;;;;0.85;0.80;;;;;;;;;;5014576;28;20029;-73
2021/09/07 00:21:01;;;;;;;1.13;0.77;;;;;;;;;;5014081;28;20084;-73
2021/09/07 00:23:26;;;;;;;1.33;0.85;;;;;;;;;;5014475;28;20451;-73
2021/09/07 00:25:52;;;;;;;1.88;0.80;;;;;;;;;;5013774;28;20112;-74
2021/09/07 00:28:18;;;;;;;0.93;0.73;;;;;;;;;;4996483;28;20105;-74
2021/09/07 00:30:44;;;;;;;1.67;0.90;;;;;;;;;;5014133;28;20030;-74
2021/09/07 00:33:09;;;;;;;1.15;0.85;;;;;;;;;;4996194;28;20041;-74
2021/09/07 00:35:35;;;;;;;0.95;0.85;;;;;;;;;;5014146;28;20029;-74
2021/09/07 00:38:01;;;;;;;1.63;1.08;;;;;;;;;;5013919;28;20084;-74
2021/09/07 00:40:26;;;;;;;3.97;1.20;;;;;;;;;;5013092;28;20030;-74
2021/09/07 00:42:51;;;;;;;2.30;1.50;;;;;;;;;;5013779;28;20535;-74
2021/09/07 00:45:20;;;;;;;3.38;1.88;;;;;;;;;;5009474;28;20506;-74
2021/09/07 00:47:46;;;;;;;2.60;1.40;;;;;;;;;;4994626;28;20034;-74
2021/09/07 00:50:12;;;;;;;2.45;1.38;;;;;;;;;;5008868;28;20663;-74
2021/09/07 00:52:40;;;;;;;1.90;1.20;;;;;;;;;;5013651;28;20072;-73
2021/09/07 00:55:07;;;;;;;2.63;1.50;;;;;;;;;;5012045;28;20347;-73
2021/09/07 00:57:34;;;;;;;2.40;1.50;;;;;;;;;;5013653;28;20084;-73
2021/09/07 01:00:03;;;;;;;1.77;1.27;;;;;;;;;;5013302;28;20489;-74
2021/09/07 01:02:28;;;;;;;2.70;1.80;;;;;;;;;;4987206;28;20335;-73
2021/09/07 01:04:54;;;;;;;1.98;1.38;;;;;;;;;;5007361;28;20026;-74
2021/09/07 01:07:19;;;;;;;2.65;1.60;;;;;;;;;;5013667;28;20038;-74
2021/09/07 01:09:45;;;;;;;2.80;1.45;;;;;;;;;;5013569;28;20572;-74
2021/09/07 01:12:11;;;;;;;3.50;1.67;;;;;;;;;;5012885;28;20402;-74
2021/09/07 01:14:38;;;;;;;4.28;2.08;;;;;;;;;;5013674;28;20029;-74
2021/09/07 01:17:11;;;;;;;4.15;1.50;;;;;;;;;;5019474;28;20021;-74
2021/09/07 01:19:36;;;;;;;3.20;1.50;;;;;;;;;;5003113;28;20114;-74
2021/09/07 01:22:03;;;;;;;2.08;1.35;;;;;;;;;;5006953;28;20470;-74
2021/09/07 01:24:29;;;;;;;4.43;1.70;;;;;;;;;;5012802;28;20367;-75
2021/09/07 01:26:55;;;;;;;2.22;1.10;;;;;;;;;;5012751;28;20030;-74
2021/09/07 01:29:21;;;;;;;3.28;1.55;;;;;;;;;;5012870;28;20049;-74
2021/09/07 01:31:46;;;;;;;6.82;1.80;;;;;;;;;;5013495;28;20036;-74
2021/09/07 01:34:20;;;;;;;2.97;1.63;;;;;;;;;;4994981;28;20022;-74
2021/09/07 01:36:46;;;;;;;;;;;;;;;;;;5013471;28;20026;-74
2021/09/07 01:39:11;;;;;;;2.70;1.75;;;;;;;;;;5012415;28;19913;-74
2021/09/07 01:41:37;;;;;;;2.22;1.50;;;;;;;;;;5012839;28;20650;-74
2021/09/07 01:44:02;;;;;;;3.33;1.23;;;;;;;;;;5012386;28;20057;-74
2021/09/07 01:46:27;;;;;;;6.43;1.70;;;;;;;;;;5012716;28;20088;-74
2021/09/07 01:48:53;;;;;;;3.13;1.40;;;;;;;;;;5012382;28;20559;-74
2021/09/07 01:51:18;;;;;;;3.85;1.60;;;;;;;;;;5013000;28;20025;-74
2021/09/07 01:53:44;;;;;;;3.33;1.50;;;;;;;;;;5011918;28;20026;-74
2021/09/07 01:56:09;;;;;;;3.20;1.40;;;;;;;;;;5011908;28;20017;-74
2021/09/07 01:58:34;;;;;;;2.90;1.48;;;;;;;;;;5012035;28;20382;-74
2021/09/07 02:01:00;;;;;;;3.17;1.50;;;;;;;;;;5011626;28;20493;-74
2021/09/07 02:03:25;;;;;;;2.08;1.30;;;;;;;;;;5012377;28;20034;-74
2021/09/07 02:05:51;;;;;;;1.83;1.25;;;;;;;;;;5012305;28;20096;-74
2021/09/07 02:08:17;;;;;;;2.47;1.40;;;;;;;;;;5011750;28;20032;-74
2021/09/07 02:10:42;;;;;;;5.25;2.97;;;;;;;;;;5011450;28;20050;-74
2021/09/07 02:13:08;;;;;;;5.10;1.58;;;;;;;;;;5011669;28;20034;-74
2021/09/07 02:15:33;;;;;;;2.05;1.30;;;;;;;;;;5011962;28;20378;-74
2021/09/07 02:17:59;;;;;;;3.70;1.50;;;;;;;;;;5012284;28;20028;-74
2021/09/07 02:20:24;;;;;;;2.20;1.25;;;;;;;;;;5011703;28;20034;-74
2021/09/07 02:22:50;;;;;;;2.70;1.45;;;;;;;;;;5011912;28;20018;-75
2021/09/07 02:25:15;;;;;;;3.53;1.60;;;;;;;;;;5011342;28;21299;-75
2021/09/07 02:27:41;;;;;;;3.35;1.60;;;;;;;;;;5010729;28;20060;-75
2021/09/07 02:30:07;;;;;;;3.80;1.60;;;;;;;;;;5011246;28;20072;-75
2021/09/07 02:32:33;;;;;;;2.50;1.40;;;;;;;;;;5011057;28;20056;-75
2021/09/07 02:34:58;;;;;;;4.38;1.40;;;;;;;;;;5011397;28;20585;-75
2021/09/07 02:37:24;;;;;;;3.28;1.60;;;;;;;;;;5011488;28;20040;-75
2021/09/07 02:39:49;;;;;;;3.00;1.50;;;;;;;;;;5011233;28;20018;-74
2021/09/07 02:42:15;;;;;;;4.28;1.40;;;;;;;;;;5010916;28;20032;-74
2021/09/07 02:44:40;;;;;;;2.95;1.65;;;;;;;;;;5011440;28;20610;-75
2021/09/07 02:47:06;;;;;;;2.53;1.58;;;;;;;;;;5011126;28;20601;-75
2021/09/07 02:49:31;;;;;;;2.28;1.45;;;;;;;;;;5011325;28;20501;-74
2021/09/07 02:51:57;;;;;;;1.85;1.20;;;;;;;;;;5010372;28;20108;-75
2021/09/07 02:54:22;;;;;;;2.42;1.20;;;;;;;;;;5010866;28;20029;-75
2021/09/07 02:56:50;;;;;;;1.55;1.08;;;;;;;;;;5010482;28;20105;-75
2021/09/07 02:59:23;;;;;;;4.25;1.50;;;;;;;;;;5107988;27;20426;-75
2021/09/07 03:01:49;;;;;;;2.83;1.15;;;;;;;;;;5106721;28;20024;-76
2021/09/07 03:04:14;;;;;;;1.63;1.10;;;;;;;;;;5098886;28;20051;-75
2021/09/07 03:06:40;;;;;;;1.70;1.30;;;;;;;;;;5106269;28;20055;-75
2021/09/07 03:09:05;;;;;;;2.35;1.38;;;;;;;;;;5097057;28;20043;-76
2021/09/07 03:11:31;;;;;;;2.90;1.35;;;;;;;;;;5094423;28;20510;-76
2021/09/07 03:13:57;;;;;;;2.63;1.50;;;;;;;;;;5085857;28;20131;-76
2021/09/07 03:16:23;;;;;;;3.28;1.50;;;;;;;;;;5094176;28;20104;-76
2021/09/07 03:18:48;;;;;;;3.67;1.40;;;;;;;;;;5104447;28;20046;-76
2021/09/07 03:21:13;;;;;;;2.95;1.48;;;;;;;;;;5106399;28;20032;-76
2021/09/07 03:23:39;;;;;;;2.25;1.30;;;;;;;;;;5091781;28;20137;-76
2021/09/07 03:26:04;;;;;;;2.45;1.50;;;;;;;;;;5089901;28;20028;-76
2021/09/07 03:28:30;;;;;;;3.42;1.55;;;;;;;;;;5098793;28;20058;-75
2021/09/07 03:30:55;;;;;;;2.75;1.60;;;;;;;;;;5090543;28;20024;-76
2021/09/07 03:33:21;;;;;;;7.50;1.67;;;;;;;;;;5093303;28;20043;-76
2021/09/07 03:35:46;;;;;;;2.92;1.38;;;;;;;;;;5096158;28;20510;-76
2021/09/07 03:38:12;;;;;;;3.22;1.45;;;;;;;;;;5096492;28;20115;-76
2021/09/07 03:40:38;;;;;;;2.28;1.40;;;;;;;;;;5093908;28;20039;-76
2021/09/07 03:43:04;;;;;;;2.97;1.55;;;;;;;;;;5095541;28;20529;-76
2021/09/07 03:45:29;;;;;;;4.28;1.63;;;;;;;;;;5092109;28;20082;-75
2021/09/07 03:47:55;;;;;;;2.58;1.70;;;;;;;;;;5097981;28;20036;-75
2021/09/07 03:50:20;;;;;;;2.88;1.60;;;;;;;;;;5107194;28;20028;-75
2021/09/07 03:52:46;;;;;;;4.25;1.88;;;;;;;;;;5092579;28;20031;-75
2021/09/07 03:55:12;;;;;;;3.08;1.67;;;;;;;;;;5099956;28;20028;-76
2021/09/07 03:57:37;;;;;;;2.60;1.65;;;;;;;;;;5100371;28;20130;-76
2021/09/07 04:00:04;;;;;;;2.83;1.40;;;;;;;;;;5101188;28;20023;-76
2021/09/07 04:02:30;;;;;;;2.20;1.20;;;;;;;;;;5086078;28;20425;-76
2021/09/07 04:04:55;;;;;;;2.47;1.30;;;;;;;;;;5087323;28;20024;-75
2021/09/07 04:07:21;;;;;;;4.68;1.52;;;;;;;;;;5086908;28;20024;-75
2021/09/07 04:09:46;;;;;;;3.45;1.52;;;;;;;;;;5078754;28;20017;-75
2021/09/07 04:12:12;;;;;;;6.63;1.65;;;;;;;;;;5073070;28;20032;-75
2021/09/07 04:14:38;;;;;;;4.10;1.50;;;;;;;;;;5077984;28;20495;-76
2021/09/07 04:17:04;;;;;;;4.05;1.48;;;;;;;;;;5086145;28;20085;-76
2021/09/07 04:19:30;;;;;;;2.00;1.20;;;;;;;;;;5081061;28;20034;-76
2021/09/07 04:21:56;;;;;;;1.80;1.20;;;;;;;;;;5086930;28;20028;-76
2021/09/07 04:24:21;;;;;;;3.85;1.65;;;;;;;;;;5077073;28;20038;-76
2021/09/07 04:26:47;;;;;;;2.55;1.23;;;;;;;;;;5089952;28;20125;-76
2021/09/07 04:29:12;;;;;;;2.22;1.20;;;;;;;;;;5078404;28;20093;-75
2021/09/07 04:31:40;;;;;;;1.92;1.23;;;;;;;;;;5074934;28;20106;-75
2021/09/07 04:34:05;;;;;;;2.95;1.55;;;;;;;;;;5088517;28;20089;-76
2021/09/07 04:36:31;;;;;;;2.20;1.20;;;;;;;;;;5093456;28;20020;-76
2021/09/07 04:38:56;;;;;;;3.67;1.60;;;;;;;;;;5091171;28;20490;-75
2021/09/07 04:41:21;;;;;;;2.03;1.40;;;;;;;;;;5071700;28;20081;-75
2021/09/07 04:43:47;;;;;;;2.45;1.50;;;;;;;;;;5105439;28;20377;-75
2021/09/07 04:46:12;;;;;;;5.22;1.92;;;;;;;;;;5072072;28;20111;-75
2021/09/07 04:48:38;;;;;;;3.58;1.60;;;;;;;;;;5073082;28;20092;-75
2021/09/07 04:51:03;;;;;;;2.45;1.35;;;;;;;;;;5073428;28;20032;-76
2021/09/07 04:53:29;;;;;;;3.50;1.50;;;;;;;;;;5072930;28;20437;-75
2021/09/07 04:55:54;;;;;;;3.03;1.40;;;;;;;;;;5079924;28;20035;-76
2021/09/07 04:58:21;;;;;;;2.45;1.48;;;;;;;;;;5073074;28;20040;-75
2021/09/07 05:00:46;;;;;;;3.60;1.50;;;;;;;;;;5072846;28;20032;-76
2021/09/07 05:03:12;;;;;;;2.83;1.60;;;;;;;;;;5067362;28;20518;-76
2021/09/07 05:05:37;;;;;;;3.53;1.45;;;;;;;;;;5070879;28;20032;-76
2021/09/07 05:08:03;;;;;;;3.80;1.52;;;;;;;;;;5074081;28;20025;-76
2021/09/07 05:10:28;;;;;;;2.53;1.50;;;;;;;;;;5072599;28;20563;-76
2021/09/07 05:12:54;;;;;;;2.45;1.42;;;;;;;;;;5072635;28;20020;-75
2021/09/07 05:15:19;;;;;;;1.98;1.50;;;;;;;;;;5072439;28;20024;-76
2021/09/07 05:17:45;;;;;;;2.97;1.25;;;;;;;;;;5075182;28;20081;-76
2021/09/07 05:20:11;;;;;;;2.47;1.60;;;;;;;;;;5071460;28;20028;-75
2021/09/07 05:22:37;;;;;;;2.20;1.42;;;;;;;;;;5071645;28;20107;-75
2021/09/07 05:25:05;;;;;;;3.28;1.38;;;;;;;;;;5072588;28;20492;-75
2021/09/07 05:27:35;;;;;;;6.38;1.30;;;;;;;;;;5073986;28;20158;-76
2021/09/07 05:30:03;;;;;;;2.83;1.67;;;;;;;;;;5071901;28;20384;-76
2021/09/07 05:32:28;;;;;;;2.72;1.30;;;;;;;;;;5073414;28;20024;-76
2021/09/07 05:34:54;;;;;;;3.17;1.55;;;;;;;;;;5072645;28;20039;-76
2021/09/07 05:37:19;;;;;;;3.90;1.58;;;;;;;;;;5071829;28;20059;-76
2021/09/07 05:39:45;;;;;;;2.70;1.50;;;;;;;;;;5071765;28;20434;-76
2021/09/07 05:42:10;;;;;;;2.80;1.63;;;;;;;;;;5071767;28;20032;-76
2021/09/07 05:44:35;;;;;;;3.15;1.67;;;;;;;;;;5071735;28;20024;-76
2021/09/07 05:47:01;;;;;;;2.80;1.73;;;;;;;;;;5072683;28;20254;-76
2021/09/07 05:49:27;;;;;;;2.97;1.48;;;;;;;;;;5071465;28;20036;-77
2021/09/07 05:51:52;;;;;;;2.70;1.70;;;;;;;;;;5071087;28;20094;-76
2021/09/07 05:54:18;;;;;;;12.25;2.67;;;;;;;;;;5071664;28;20035;-75
2021/09/07 05:56:43;;;;;;;10.10;2.30;;;;;;;;;;5075477;28;20013;-73
2021/09/07 05:59:09;;;;;;;4.30;2.10;;;;;;;;;;5072542;28;20512;-73
2021/09/07 06:01:35;;;;;;;5.20;2.50;;;;;;;;;;5071352;28;20570;-73
2021/09/07 06:04:01;;;;;;;5.65;2.92;;;;;;;;;;5071452;28;20507;-73
2021/09/07 06:06:27;;;;;;;6.90;3.05;;;;;;;;;;5069979;28;20020;-74
2021/09/07 06:08:52;;;;;;;6.25;3.00;;;;;;;;;;5073090;28;20502;-74
2021/09/07 06:11:17;;;;;;;8.10;3.40;;;;;;;;;;5071318;28;20024;-74
2021/09/07 06:13:43;;;;;;;8.60;3.92;;;;;;;;;;5070967;28;20104;-74
2021/09/07 06:16:08;;;;;;;6.43;3.63;;;;;;;;;;5071433;28;20361;-74
2021/09/07 06:18:34;;;;;;;6.38;4.28;;;;;;;;;;5071064;28;20023;-74
2021/09/07 06:20:59;;;;;;;8.27;4.43;;;;;;;;;;5070870;28;20508;-74
2021/09/07 06:23:25;;;;;;;10.80;4.68;;;;;;;;;;5071682;28;20106;-75
2021/09/07 06:25:50;;;;;;;10.18;4.30;;;;;;;;;;5072068;28;20035;-76
2021/09/07 06:28:16;;;;;;;8.02;4.30;;;;;;;;;;5070316;28;20024;-77
2021/09/07 06:30:41;;;;;;;8.02;4.70;;;;;;;;;;5071963;28;20151;-76
2021/09/07 06:33:07;;;;;;;9.35;4.72;;;;;;;;;;5075688;28;20031;-78
2021/09/07 06:35:32;;;;;;;7.70;4.90;;;;;;;;;;5072014;28;20059;-76
2021/09/07 06:38:00;;;;;;;7.85;5.28;;;;;;;;;;5071675;28;20058;-73
2021/09/07 06:40:26;;;;;;;8.77;5.72;;;;;;;;;;5072399;28;20110;-75
2021/09/07 06:42:52;;;;;;;9.80;5.82;;;;;;;;;;5074071;28;20116;-77
2021/09/07 06:45:17;;;;;;;9.30;4.82;;;;;;;;;;5072041;28;20082;-77
2021/09/07 06:47:42;;;;;;;8.80;5.10;;;;;;;;;;5071334;28;20016;-77
2021/09/07 06:50:11;;;;;;;5.43;3.80;;;;;;;;;;5070279;28;20031;-73
2021/09/07 06:52:37;;;;;;;6.03;3.67;;;;;;;;;;5070837;28;20119;-77
2021/09/07 06:55:03;;;;;;;7.18;3.85;;;;;;;;;;5071163;28;20427;-75
2021/09/07 06:57:29;;;;;;;5.55;3.05;;;;;;;;;;5069792;28;20044;-73
2021/09/07 06:59:55;;;;;;;5.03;3.40;;;;;;;;;;5073298;28;20481;-73
2021/09/07 07:02:21;;;;;;;5.40;3.10;;;;;;;;;;5072158;28;20067;-74
2021/09/07 07:04:47;;;;;;;6.18;3.00;;;;;;;;;;5072003;28;20020;-75
2021/09/07 07:07:13;;;;;;;4.93;3.15;;;;;;;;;;5070657;28;20560;-74
2021/09/07 07:09:38;;;;;;;5.10;3.45;;;;;;;;;;5070511;28;20035;-73
2021/09/07 07:12:04;;;;;;;5.63;3.35;;;;;;;;;;5071226;28;20040;-75
2021/09/07 07:14:30;;;;;;;4.95;2.83;;;;;;;;;;5071031;28;20024;-76
2021/09/07 07:16:56;;;;;;;6.20;2.80;;;;;;;;;;5070939;28;20504;-75
2021/09/07 07:19:21;;;;;;;6.25;3.10;;;;;;;;;;5070521;28;20032;-76
2021/09/07 07:21:48;;;;;;;7.45;3.47;;;;;;;;;;5071507;28;20103;-74
2021/09/07 07:24:16;;;;;;;6.03;3.42;;;;;;;;;;5071577;28;20029;-73
2021/09/07 07:26:43;;;;;;;5.25;2.95;;;;;;;;;;5071487;28;20026;-74
2021/09/07 07:29:09;;;;;;;5.13;3.28;;;;;;;;;;5071279;28;20491;-74
2021/09/07 07:31:35;;;;;;;4.85;3.70;;;;;;;;;;5071286;28;20029;-73
2021/09/07 07:34:01;;;;;;;5.47;2.97;;;;;;;;;;5070873;28;20529;-74
2021/09/07 07:36:27;;;;;;;4.85;3.30;;;;;;;;;;5070009;28;20453;-73
2021/09/07 07:38:52;;;;;;;6.07;3.65;;;;;;;;;;5069633;28;20032;-76
2021/09/07 07:41:18;;;;;;;4.25;3.10;;;;;;;;;;5069608;28;20061;-77
2021/09/07 07:43:47;;;;;;;7.85;3.42;;;;;;;;;;5069787;28;20029;-76
2021/09/07 07:46:14;;;;;;;6.30;3.20;;;;;;;;;;5088108;28;20035;-78
2021/09/07 07:48:43;;;;;;;5.40;2.90;;;;;;;;;;5078571;28;20055;-75
2021/09/07 07:51:09;;;;;;;4.47;3.10;;;;;;;;;;5074551;28;20020;-75
2021/09/07 07:53:38;;;;;;;6.50;2.72;;;;;;;;;;5073901;28;20384;-76
2021/09/07 07:56:05;;;;;;;7.25;3.35;;;;;;;;;;5074576;28;20087;-75
2021/09/07 07:58:31;;;;;;;4.93;3.08;;;;;;;;;;5072941;28;20044;-75
2021/09/07 08:00:57;;;;;;;6.82;3.13;;;;;;;;;;5074430;28;20021;-75
2021/09/07 08:03:23;;;;;;;4.25;3.03;;;;;;;;;;5074280;28;20597;-74
2021/09/07 08:05:49;;;;;;;4.65;2.97;;;;;;;;;;5074278;28;20028;-75
2021/09/07 08:08:14;;;;;;;5.97;3.60;;;;;;;;;;5073701;28;20357;-75
2021/09/07 08:10:40;;;;;;;4.43;2.65;;;;;;;;;;5073615;28;20028;-75
2021/09/07 08:13:07;;;;;;;5.78;3.05;;;;;;;;;;5073414;28;20028;-75
2021/09/07 08:15:32;;;;;;;4.57;2.80;;;;;;;;;;5068364;28;20066;-74
2021/09/07 08:17:59;;;;;;;4.57;3.00;;;;;;;;;;5073697;28;20052;-74
2021/09/07 08:20:26;;;;;;;5.07;2.75;;;;;;;;;;5072881;28;20492;-74
2021/09/07 08:22:51;;;;;;;4.55;3.20;;;;;;;;;;5074332;28;20469;-76
2021/09/07 08:25:17;;;;;;;5.25;3.10;;;;;;;;;;5074195;28;20033;-76
2021/09/07 08:27:43;;;;;;;7.72;2.92;;;;;;;;;;5073705;28;20027;-75
2021/09/07 08:30:09;;;;;;;4.80;2.80;;;;;;;;;;5073346;28;20086;-75
2021/09/07 08:32:41;;;;;;;7.03;3.08;;;;;;;;;;5076648;28;20056;-75
2021/09/07 08:35:12;;;;;;;5.22;3.20;;;;;;;;;;5072464;28;20029;-76
2021/09/07 08:37:38;;;;;;;4.68;2.80;;;;;;;;;;5072617;28;20032;-75
2021/09/07 08:40:05;;;;;;;5.53;2.60;;;;;;;;;;5072952;28;20020;-74
2021/09/07 08:42:33;;;;;;;6.25;2.70;;;;;;;;;;5073331;28;20024;-74
2021/09/07 08:44:59;;;;;;;5.30;2.70;;;;;;;;;;5073519;28;20051;-75
2021/09/07 08:47:25;;;;;;;5.22;2.70;;;;;;;;;;5073815;28;20036;-75
2021/09/07 08:49:50;;;;;;;5.18;2.60;;;;;;;;;;5073058;28;20028;-74
2021/09/07 08:52:19;;;;;;;6.75;2.67;;;;;;;;;;5072894;28;20031;-74
2021/09/07 08:54:45;;;;;;;4.47;2.78;;;;;;;;;;5072336;28;20074;-75
2021/09/07 08:57:11;;;;;;;5.13;2.70;;;;;;;;;;5073875;28;20024;-76
2021/09/07 08:59:37;;;;;;;4.57;3.05;;;;;;;;;;5073128;28;20078;-75
2021/09/07 09:02:13;;;;;;;6.88;3.17;;;;;;;;;;5073565;28;20095;-75
2021/09/07 09:04:42;;;;;;;5.65;3.00;;;;;;;;;;5072521;28;20032;-74
2021/09/07 09:07:20;;;;;;;7.53;3.35;;;;;;;;;;5065838;28;20082;-75
2021/09/07 09:09:45;;;;;;;4.03;2.78;;;;;;;;;;5073516;28;20074;-76
2021/09/07 09:12:11;;;;;;;5.60;3.00;;;;;;;;;;5072616;28;20028;-75
2021/09/07 09:14:39;;;;;;;6.22;3.00;;;;;;;;;;5072026;28;20024;-73
2021/09/07 09:17:16;;;;;;;5.55;3.00;;;;;;;;;;5071572;28;20100;-76
2021/09/07 09:20:00;;;;;;;5.53;3.10;;;;;;;;;;5072878;28;20036;-77
2021/09/07 09:22:59;;;;;;;5.50;3.00;;;;;;;;;;5072934;28;20028;-74
2021/09/07 09:25:26;;;;;;;4.60;2.50;;;;;;;;;;5070946;28;20036;-75
2021/09/07 09:27:55;;;;;;;6.03;2.90;;;;;;;;;;5073069;28;20031;-73
2021/09/07 09:30:46;;;;;;;5.45;2.90;;;;;;;;;;5069236;28;20530;-74
2021/09/07 09:33:15;;;;;;;5.78;2.92;;;;;;;;;;5073625;28;20115;-74
2021/09/07 09:35:55;;;;;;;6.88;2.60;;;;;;;;;;5070849;28;20021;-76
2021/09/07 09:38:24;;;;;;;5.05;2.83;;;;;;;;;;5077617;28;20025;-75
2021/09/07 09:41:09;;;;;;;5.35;3.00;;;;;;;;;;5070551;28;20127;-75
2021/09/07 09:43:43;;;;;;;4.40;2.75;;;;;;;;;;5071416;28;20025;-72
2021/09/07 09:46:19;;;;;;;6.60;2.97;;;;;;;;;;5071703;28;20040;-74
2021/09/07 09:48:45;;;;;;;4.60;3.13;;;;;;;;;;5071659;28;20028;-73
2021/09/07 09:51:14;;;;;;;5.10;2.97;;;;;;;;;;5073033;28;20039;-73
2021/09/07 09:53:44;;;;;;;4.82;3.17;;;;;;;;;;5070244;28;20025;-75
2021/09/07 09:56:10;;;;;;;5.68;3.40;;;;;;;;;;5076102;28;20522;-74
2021/09/07 09:58:35;;;;;;;6.22;3.00;;;;;;;;;;5070510;28;20049;-75
2021/09/07 10:01:02;;;;;;;5.45;3.28;;;;;;;;;;5071773;28;20377;-76
2021/09/07 10:03:28;;;;;;;22.23;3.30;;;;;;;;;;5072307;28;20606;-74
2021/09/07 10:05:53;;;;;;;4.38;3.17;;;;;;;;;;5071562;28;20030;-75
2021/09/07 10:08:19;;;;;;;7.40;2.97;;;;;;;;;;5070976;28;20031;-74
2021/09/07 10:10:58;;;;;;;6.03;3.10;;;;;;;;;;5071050;28;20236;-75
2021/09/07 10:13:28;;;;;;;9.63;3.75;;;;;;;;;;5071204;28;20047;-74
2021/09/07 10:16:06;;;;;;;4.32;2.70;;;;;;;;;;5072676;28;20025;-74
2021/09/07 10:18:55;;;;;;;6.15;3.40;;;;;;;;;;5068009;28;20039;-72
2021/09/07 10:26:39;;;;;;;5.53;3.08;;;;;;;;;;5070636;28;20048;-73
2021/09/07 10:29:12;;;;;;;5.15;3.17;;;;;;;;;;5071545;28;20469;-74
2021/09/07 10:31:49;;;;;;;4.75;2.95;;;;;;;;;;5069546;28;20536;-74
2021/09/07 10:34:16;;;;;;;5.53;3.50;;;;;;;;;;5069435;28;20048;-75
2021/09/07 10:37:15;;;;;;;5.38;3.22;;;;;;;;;;5071217;28;20644;-76
2021/09/07 10:39:45;;;;;;;6.07;3.47;;;;;;;;;;5070533;28;20102;-73
2021/09/07 10:42:12;;;;;;;6.38;3.78;;;;;;;;;;5071233;28;20035;-73
2021/09/07 10:44:39;;;;;;;5.70;3.20;;;;;;;;;;5071523;28;20441;-73
2021/09/07 10:47:15;;;;;;;5.53;3.22;;;;;;;;;;5074542;28;20119;-74
2021/09/07 10:49:44;;;;;;;4.57;3.20;;;;;;;;;;5070737;28;20020;-74
2021/09/07 10:52:22;;;;;;;8.52;3.97;;;;;;;;;;5079049;28;20111;-74
2021/09/07 10:55:09;;;;;;;6.10;3.28;;;;;;;;;;5069937;28;20017;-73
2021/09/07 10:57:44;;;;;;;5.80;3.83;;;;;;;;;;5070900;28;20041;-74
2021/09/07 11:00:13;;;;;;;5.82;3.70;;;;;;;;;;5071293;28;20029;-73
2021/09/07 11:02:52;;;;;;;7.60;3.58;;;;;;;;;;5065432;28;20028;-74
2021/09/07 11:05:17;;;;;;;5.03;3.60;;;;;;;;;;5070516;28;20520;-75
2021/09/07 11:07:45;;;;;;;19.40;4.55;;;;;;;;;;5070857;28;20154;-75
2021/09/07 11:10:16;;;;;;;6.22;3.30;;;;;;;;;;5071917;28;20429;-75
2021/09/07 11:12:56;;;;;;;5.13;3.42;;;;;;;;;;5070854;28;20092;-76
2021/09/07 11:15:24;;;;;;;7.47;3.72;;;;;;;;;;5071070;28;20093;-73
2021/09/07 11:17:54;;;;;;;5.55;3.40;;;;;;;;;;5071084;28;20029;-73
2021/09/07 11:20:26;;;;;;;6.82;4.15;;;;;;;;;;5075540;28;20036;-74
2021/09/07 11:22:54;;;;;;;8.43;3.83;;;;;;;;;;5089740;28;20380;-73
2021/09/07 11:25:21;;;;;;;7.88;3.78;;;;;;;;;;5076208;28;20030;-73
2021/09/07 11:28:02;;;;;;;6.38;3.50;;;;;;;;;;5074466;28;20468;-73
2021/09/07 11:30:35;;;;;;;8.30;3.70;;;;;;;;;;5077593;28;20375;-73
2021/09/07 11:33:16;;;;;;;5.97;3.35;;;;;;;;;;5075955;28;20038;-75
2021/09/07 11:35:44;;;;;;;5.53;3.38;;;;;;;;;;5073936;28;20024;-74
2021/09/07 11:38:15;;;;;;;8.48;3.28;;;;;;;;;;5073311;28;20037;-75
2021/09/07 11:40:47;;;;;;;4.82;3.50;;;;;;;;;;5073651;28;20379;-74
2021/09/07 11:43:14;;;;;;;4.53;3.13;;;;;;;;;;5074241;28;20438;-76
2021/09/07 11:45:40;;;;;;;6.05;2.88;;;;;;;;;;5073785;28;20021;-75
2021/09/07 11:48:08;;;;;;;6.40;3.08;;;;;;;;;;5074571;28;20017;-74
2021/09/07 11:50:39;;;;;;;6.88;3.40;;;;;;;;;;5074212;28;20082;-75
2021/09/07 11:53:08;;;;;;;5.47;3.08;;;;;;;;;;5074464;28;20021;-74
2021/09/07 11:55:52;;;;;;;6.22;3.38;;;;;;;;;;5076297;28;20468;-75
2021/09/07 11:58:35;;;;;;;5.57;3.30;;;;;;;;;;5074204;28;20119;-74
2021/09/07 12:01:05;;;;;;;5.32;3.13;;;;;;;;;;5081527;28;20383;-75
2021/09/07 12:03:59;;;;;;;4.55;3.00;;;;;;;;;;5087858;28;20472;-74
2021/09/07 12:06:40;;;;;;;5.60;3.05;;;;;;;;;;5074394;28;20025;-74
2021/09/07 12:09:22;;;;;;;4.43;2.80;;;;;;;;;;5074670;28;20024;-73
2021/09/07 12:12:00;;;;;;;5.50;2.70;;;;;;;;;;5074480;28;20460;-76
2021/09/07 12:14:25;;;;;;;4.53;2.55;;;;;;;;;;5073007;28;20028;-75
2021/09/07 12:16:55;;;;;;;5.00;2.70;;;;;;;;;;5074230;28;20062;-77
2021/09/07 12:19:31;;;;;;;6.75;3.00;;;;;;;;;;5074935;28;20024;-76
2021/09/07 12:22:17;;;;;;;4.20;2.60;;;;;;;;;;5075214;28;20453;-75
2021/09/07 12:25:12;;;;;;;4.47;2.70;;;;;;;;;;5054826;28;20024;-76
2021/09/07 12:27:45;;;;;;;4.85;2.40;;;;;;;;;;5050404;28;20069;-75
2021/09/07 12:30:16;;;;;;;;;;;;;;;;;;5054566;28;20013;-77
2021/09/07 12:32:48;;;;;;;4.28;2.92;;;;;;;;;;5062175;28;19955;-76
2021/09/07 12:35:34;;;;;;;4.80;2.70;;;;;;;;;;5087820;28;20036;-77
2021/09/07 12:38:06;;;;;;;5.43;3.13;;;;;;;;;;5080714;28;20107;-76
2021/09/07 12:40:33;;;;;;;4.35;3.03;;;;;;;;;;5088115;28;20024;-76
2021/09/07 12:43:09;;;;;;;4.22;2.90;;;;;;;;;;5088967;28;20067;-76
2021/09/07 12:45:34;;;;;;;6.28;2.70;;;;;;;;;;5077439;28;20533;-77
2021/09/07 12:48:00;;;;;;;6.40;3.10;;;;;;;;;;5073398;28;20063;-73
2021/09/07 12:50:25;;;;;;;6.47;3.13;;;;;;;;;;5076465;28;20024;-74
2021/09/07 12:52:51;;;;;;;6.53;2.80;;;;;;;;;;5074153;28;20031;-74
2021/09/07 12:55:19;;;;;;;4.95;3.38;;;;;;;;;;5076348;28;20033;-75
2021/09/07 12:57:45;;;;;;;7.85;3.03;;;;;;;;;;5078313;28;20040;-74
2021/09/07 13:00:13;;;;;;;4.75;2.88;;;;;;;;;;5071860;28;20040;-77
2021/09/07 13:02:38;;;;;;;5.20;2.75;;;;;;;;;;5072481;28;20028;-75
2021/09/07 13:05:04;;;;;;;6.85;3.00;;;;;;;;;;5082180;28;20034;-75
2021/09/07 13:07:30;;;;;;;5.53;3.00;;;;;;;;;;5080369;28;20027;-75
2021/09/07 13:09:55;;;;;;;4.10;2.78;;;;;;;;;;5082960;28;20058;-74
2021/09/07 13:12:21;;;;;;;4.07;2.60;;;;;;;;;;5085396;28;20384;-74
2021/09/07 13:14:46;;;;;;;3.65;2.60;;;;;;;;;;5091634;28;20051;-74
2021/09/07 13:17:12;;;;;;;4.72;2.90;;;;;;;;;;5075078;28;20032;-75
2021/09/07 13:19:39;;;;;;;6.57;2.85;;;;;;;;;;5072270;28;20029;-75
2021/09/07 13:22:05;;;;;;;5.18;3.00;;;;;;;;;;5090804;28;20020;-74
2021/09/07 13:24:33;;;;;;;5.18;2.92;;;;;;;;;;5091229;28;20028;-74
2021/09/07 13:26:58;;;;;;;6.53;2.90;;;;;;;;;;5092666;28;20023;-75
2021/09/07 13:29:24;;;;;;;3.80;2.70;;;;;;;;;;5085151;28;20033;-75
2021/09/07 13:31:51;;;;;;;6.75;2.80;;;;;;;;;;5071549;28;20032;-76
2021/09/07 13:34:17;;;;;;;3.75;2.58;;;;;;;;;;5073076;28;20051;-76
2021/09/07 13:36:42;;;;;;;5.28;2.65;;;;;;;;;;5073448;28;20032;-76
2021/09/07 13:39:08;;;;;;;5.82;2.50;;;;;;;;;;5071677;28;20039;-75
2021/09/07 13:41:33;;;;;;;5.32;2.75;;;;;;;;;;5070800;28;20673;-75
2021/09/07 13:43:59;;;;;;;6.95;2.90;;;;;;;;;;5071726;28;20021;-75
2021/09/07 13:46:24;;;;;;;4.97;2.42;;;;;;;;;;5070051;28;20043;-75
2021/09/07 13:48:49;;;;;;;4.75;2.40;;;;;;;;;;5070699;28;20027;-74
2021/09/07 13:51:15;;;;;;;4.88;2.60;;;;;;;;;;5071848;28;20035;-74
2021/09/07 13:53:41;;;;;;;5.82;2.97;;;;;;;;;;5071139;28;20150;-75
2021/09/07 13:56:06;;;;;;;7.32;2.85;;;;;;;;;;5077219;28;20477;-74
2021/09/07 13:58:31;;;;;;;5.53;2.92;;;;;;;;;;5072307;28;20044;-75
2021/09/07 14:00:57;;;;;;;5.40;2.65;;;;;;;;;;5078903;28;20044;-76
2021/09/07 14:03:22;;;;;;;5.60;3.03;;;;;;;;;;5072675;28;20021;-75
2021/09/07 14:05:48;;;;;;;4.95;2.72;;;;;;;;;;5072524;28;20402;-74
2021/09/07 14:08:13;;;;;;;4.50;2.80;;;;;;;;;;5071411;28;20024;-73
2021/09/07 14:10:39;;;;;;;5.65;2.85;;;;;;;;;;5070758;28;20024;-74
2021/09/07 14:13:04;;;;;;;4.50;2.72;;;;;;;;;;5071898;28;20017;-76
2021/09/07 14:15:30;;;;;;;4.57;2.80;;;;;;;;;;5075786;28;20017;-76
2021/09/07 14:17:55;;;;;;;5.00;3.10;;;;;;;;;;5070926;28;20035;-77
2021/09/07 14:20:21;;;;;;;5.43;2.83;;;;;;;;;;5071901;28;20056;-76
2021/09/07 14:22:46;;;;;;;5.97;2.67;;;;;;;;;;5069864;28;20020;-76
2021/09/07 14:25:13;;;;;;;4.00;2.63;;;;;;;;;;5070819;28;20036;-76
2021/09/07 14:27:39;;;;;;;4.97;2.83;;;;;;;;;;5070676;28;20024;-75
2021/09/07 14:30:06;;;;;;;8.20;3.10;;;;;;;;;;5071792;28;20024;-76
2021/09/07 14:32:32;;;;;;;7.45;2.95;;;;;;;;;;5054074;28;20503;-76
2021/09/07 14:34:58;;;;;;;4.05;2.47;;;;;;;;;;5070535;28;20032;-75
2021/09/07 14:37:24;;;;;;;6.22;2.85;;;;;;;;;;5072588;28;20460;-75
2021/09/07 14:39:50;;;;;;;6.05;2.97;;;;;;;;;;5069491;28;20460;-76
2021/09/07 14:42:16;;;;;;;5.40;2.95;;;;;;;;;;5070931;28;20034;-73
2021/09/07 14:44:42;;;;;;;5.57;2.70;;;;;;;;;;5071468;28;20024;-76
2021/09/07 14:47:07;;;;;;;4.70;2.90;;;;;;;;;;5071786;28;20024;-76
2021/09/07 14:49:33;;;;;;;4.85;3.08;;;;;;;;;;5074091;28;20024;-76
2021/09/07 14:51:59;;;;;;;4.40;2.55;;;;;;;;;;5070958;28;20021;-77